createdAt,value
2023-01-20T01:50:26.824Z,6.68
2023-01-20T01:51:35.491Z,6.53
2023-01-20T01:52:41.161Z,6.53
2023-01-20T01:53:46.517Z,6.52
2023-01-20T01:54:48.710Z,6.52
2023-01-20T01:55:56.983Z,6.60
2023-01-20T01:57:00.037Z,6.62
2023-01-20T01:58:04.351Z,6.63
2023-01-20T01:59:07.489Z,6.61
2023-01-20T02:00:10.763Z,6.64
2023-01-20T02:01:13.935Z,6.62
2023-01-20T02:02:19.681Z,6.62
2023-01-20T02:03:21.923Z,6.62
2023-01-20T02:04:26.055Z,6.60
2023-01-20T02:05:29.946Z,6.60
2023-01-20T02:06:35.466Z,6.60
2023-01-20T02:07:38.845Z,6.62
2023-01-20T02:08:42.133Z,6.59
2023-01-20T02:09:44.549Z,6.55
2023-01-20T02:10:46.576Z,6.51
2023-01-20T02:11:51.949Z,6.51
2023-01-20T02:12:54.383Z,6.50
2023-01-20T02:13:58.091Z,6.49
2023-01-20T02:15:02.832Z,6.49
2023-01-20T02:16:15.121Z,6.48
2023-01-20T02:17:42.240Z,6.46
2023-01-20T02:18:59.672Z,6.47
2023-01-20T02:20:34.682Z,6.46
2023-01-20T02:22:09.573Z,6.45
2023-01-20T02:23:15.328Z,6.44
2023-01-20T02:24:40.666Z,6.44
2023-01-20T02:26:06.349Z,6.43
2023-01-20T02:27:30.290Z,6.40
2023-01-20T02:29:09.899Z,6.35
2023-01-20T02:30:38.195Z,6.36
2023-01-20T02:31:56.276Z,6.31
2023-01-20T02:33:02.167Z,6.25
2023-01-20T02:34:11.020Z,6.24
2023-01-20T02:36:32.562Z,6.32
2023-01-20T02:37:53.563Z,6.19
2023-01-20T02:39:08.265Z,6.19
2023-01-20T02:40:29.022Z,6.19
2023-01-20T02:41:57.713Z,6.18
2023-01-20T02:43:15.324Z,6.13
2023-01-20T02:44:24.046Z,6.16
2023-01-20T02:45:48.316Z,6.14
2023-01-20T02:48:25.694Z,6.27
2023-01-20T02:49:34.306Z,6.16
2023-01-20T02:50:48.844Z,6.12
2023-01-20T02:52:06.709Z,6.13
2023-01-20T02:53:14.079Z,6.09
2023-01-20T02:54:18.100Z,6.03
2023-01-20T02:55:24.269Z,6.01
2023-01-20T02:56:29.437Z,6.03
2023-01-20T02:57:38.344Z,6.03
2023-01-20T02:58:44.069Z,6.03
2023-01-20T02:59:49.748Z,6.00
2023-01-20T03:00:55.588Z,6.02
2023-01-20T03:02:01.419Z,6.02
2023-01-20T03:03:07.681Z,5.99
2023-01-20T03:04:13.276Z,6.00
2023-01-20T03:05:19.079Z,5.97
2023-01-20T03:06:24.832Z,5.97
2023-01-20T03:07:30.417Z,5.97
2023-01-20T03:08:34.402Z,5.96
2023-01-20T03:09:49.071Z,5.99
2023-01-20T03:10:54.080Z,5.99
2023-01-20T03:12:03.340Z,5.99
2023-01-20T03:13:18.243Z,5.97
2023-01-20T03:14:21.931Z,5.95
2023-01-20T03:15:30.320Z,5.95
2023-01-20T03:16:32.760Z,5.96
2023-01-20T03:17:36.275Z,5.95
2023-01-20T03:18:39.011Z,5.92
2023-01-20T03:19:41.181Z,5.88
2023-01-20T03:20:43.511Z,5.84
2023-01-20T03:21:45.917Z,5.89
2023-01-20T03:22:50.329Z,5.90
2023-01-20T03:23:55.638Z,5.93
2023-01-20T03:24:58.644Z,5.88
2023-01-20T03:26:04.025Z,5.91
2023-01-20T03:27:07.250Z,5.93
2023-01-20T03:28:09.823Z,5.90
2023-01-20T03:29:11.833Z,5.89
2023-01-20T03:30:15.741Z,5.91
2023-01-20T03:31:21.569Z,5.89
2023-01-20T03:32:24.621Z,5.94
2023-01-20T03:33:28.747Z,5.94
2023-01-20T03:34:34.932Z,5.95
2023-01-20T03:35:38.030Z,5.96
2023-01-20T03:36:43.766Z,5.93
2023-01-20T03:37:46.097Z,5.90
2023-01-20T03:38:49.106Z,5.94
2023-01-20T03:39:53.710Z,5.96
2023-01-20T03:42:28.276Z,6.06
2023-01-20T03:43:40.397Z,5.92
2023-01-20T03:44:57.718Z,5.92
2023-01-20T03:46:06.404Z,5.97
2023-01-20T03:47:24.332Z,5.94
2023-01-20T03:49:55.100Z,6.09
2023-01-20T03:51:00.869Z,5.99
2023-01-20T03:53:34.094Z,6.14
2023-01-20T03:54:46.746Z,6.05
2023-01-20T03:56:05.193Z,6.05
2023-01-20T03:57:14.553Z,6.08
2023-01-20T03:58:20.215Z,6.06
2023-01-20T03:59:23.386Z,6.05
2023-01-20T04:00:29.610Z,5.99
2023-01-20T04:01:38.930Z,6.05
2023-01-20T04:02:42.361Z,6.02
2023-01-20T04:03:46.862Z,6.01
2023-01-20T04:04:50.243Z,6.02
2023-01-20T04:05:55.006Z,6.05
2023-01-20T04:06:57.348Z,6.00
2023-01-20T04:08:03.505Z,6.01
2023-01-20T04:09:09.238Z,6.01
2023-01-20T04:10:15.045Z,5.92
2023-01-20T04:11:18.733Z,5.88
2023-01-20T04:12:21.106Z,5.88
2023-01-20T04:13:24.172Z,5.83
2023-01-20T04:14:26.314Z,5.82
2023-01-20T04:15:34.756Z,5.81
2023-01-20T04:16:37.615Z,5.83
2023-01-20T04:17:39.951Z,5.86
2023-01-20T04:18:45.698Z,5.90
2023-01-20T04:19:48.340Z,5.78
2023-01-20T04:20:54.285Z,5.84
2023-01-20T04:22:11.929Z,5.86
2023-01-20T04:23:23.288Z,5.86
2023-01-20T04:24:36.025Z,5.80
2023-01-20T04:25:38.347Z,5.75
2023-01-20T04:26:40.662Z,5.72
2023-01-20T04:27:42.538Z,5.66
2023-01-20T04:28:44.553Z,5.72
2023-01-20T04:29:46.558Z,5.73
2023-01-20T04:30:49.210Z,5.74
2023-01-20T04:32:02.799Z,5.76
2023-01-20T04:33:04.917Z,5.81
2023-01-20T04:34:09.153Z,5.75
2023-01-20T04:35:14.579Z,5.75
2023-01-20T04:36:17.169Z,5.70
2023-01-20T04:37:19.164Z,5.66
2023-01-20T04:38:21.038Z,5.71
2023-01-20T04:39:22.954Z,5.72
2023-01-20T04:40:25.180Z,5.70
2023-01-20T04:41:27.189Z,5.71
2023-01-20T04:42:29.289Z,5.65
2023-01-20T04:43:31.152Z,5.59
2023-01-20T04:44:33.028Z,5.63
2023-01-20T04:45:35.709Z,5.62
2023-01-20T04:46:37.720Z,5.58
2023-01-20T04:47:39.689Z,5.62
2023-01-20T04:48:44.434Z,5.62
2023-01-20T04:49:46.397Z,5.62
2023-01-20T04:50:48.370Z,5.62
2023-01-20T04:51:51.871Z,5.61
2023-01-20T04:52:55.978Z,5.61
2023-01-20T04:53:59.183Z,5.59
2023-01-20T04:55:01.783Z,5.61
2023-01-20T04:56:06.554Z,5.57
2023-01-20T04:57:08.467Z,5.56
2023-01-20T04:58:10.622Z,5.56
2023-01-20T04:59:12.558Z,5.56
2023-01-20T05:00:15.560Z,5.57
2023-01-20T05:01:17.841Z,5.53
2023-01-20T05:02:20.333Z,5.49
2023-01-20T05:03:22.332Z,5.52
2023-01-20T05:04:24.479Z,5.49
2023-01-20T05:05:28.624Z,5.53
2023-01-20T05:06:30.650Z,5.50
2023-01-20T05:07:32.635Z,5.50
2023-01-20T05:08:34.823Z,5.52
2023-01-20T05:09:37.425Z,5.50
2023-01-20T05:10:39.501Z,5.50
2023-01-20T05:11:44.549Z,5.50
2023-01-20T05:12:46.812Z,5.52
2023-01-20T05:13:48.916Z,5.52
2023-01-20T05:14:51.415Z,5.48
2023-01-20T05:15:53.671Z,5.47
2023-01-20T05:16:56.168Z,5.45
2023-01-20T05:17:58.067Z,5.42
2023-01-20T05:19:00.909Z,5.42
2023-01-20T05:20:04.217Z,5.43
2023-01-20T05:21:06.507Z,5.48
2023-01-20T05:22:09.119Z,5.50
2023-01-20T05:23:11.784Z,5.40
2023-01-20T05:24:13.873Z,5.39
2023-01-20T05:25:16.627Z,5.42
2023-01-20T05:26:23.958Z,5.37
2023-01-20T05:27:26.157Z,5.37
2023-01-20T05:28:29.338Z,5.36
2023-01-20T05:29:31.651Z,5.36
2023-01-20T05:30:34.070Z,5.42
2023-01-20T05:31:36.430Z,5.41
2023-01-20T05:32:38.652Z,5.33
2023-01-20T05:33:40.765Z,5.39
2023-01-20T05:34:42.865Z,5.39
2023-01-20T05:35:45.340Z,5.42
2023-01-20T05:36:52.196Z,5.40
2023-01-20T05:37:56.296Z,5.42
2023-01-20T05:38:58.331Z,5.37
2023-01-20T05:40:00.342Z,5.32
2023-01-20T05:41:04.825Z,5.30
2023-01-20T05:42:06.738Z,5.32
2023-01-20T05:43:08.646Z,5.30
2023-01-20T05:44:10.612Z,5.30
2023-01-20T05:45:13.077Z,5.27
2023-01-20T05:46:16.587Z,5.28
2023-01-20T05:47:19.368Z,5.24
2023-01-20T05:48:21.542Z,5.25
2023-01-20T05:49:23.499Z,5.27
2023-01-20T05:50:27.507Z,5.27
2023-01-20T05:51:29.825Z,5.27
2023-01-20T05:52:32.443Z,5.26
2023-01-20T05:53:34.518Z,5.28
2023-01-20T05:54:36.649Z,5.29
2023-01-20T05:55:39.012Z,5.30
2023-01-20T05:56:41.312Z,5.33
2023-01-20T05:57:43.605Z,5.35
2023-01-20T05:58:45.499Z,5.33
2023-01-20T05:59:47.411Z,5.31
2023-01-20T06:00:49.496Z,5.29
2023-01-20T06:01:51.510Z,5.31
2023-01-20T06:02:53.841Z,5.27
2023-01-20T06:03:56.033Z,5.29
2023-01-20T06:05:00.311Z,5.34
2023-01-20T06:06:04.505Z,5.33
2023-01-20T06:07:06.568Z,5.33
2023-01-20T06:08:08.437Z,5.28
2023-01-20T06:09:10.428Z,5.27
2023-01-20T06:10:12.413Z,5.33
2023-01-20T06:11:14.484Z,5.26
2023-01-20T06:12:16.370Z,5.28
2023-01-20T06:13:18.404Z,5.29
2023-01-20T06:14:20.262Z,5.24
2023-01-20T06:15:24.925Z,5.20
2023-01-20T06:16:26.968Z,5.23
2023-01-20T06:17:29.100Z,5.21
2023-01-20T06:18:32.713Z,5.17
2023-01-20T06:19:34.614Z,5.25
2023-01-20T06:20:36.736Z,5.23
2023-01-20T06:21:38.595Z,5.29
2023-01-20T06:22:40.571Z,5.27
2023-01-20T06:23:42.465Z,5.27
2023-01-20T06:24:44.941Z,5.29
2023-01-20T06:25:46.869Z,5.27
2023-01-20T06:26:52.196Z,5.29
2023-01-20T06:27:54.127Z,5.31
2023-01-20T06:28:59.333Z,5.27
2023-01-20T06:30:01.247Z,5.28
2023-01-20T06:31:06.324Z,5.26
2023-01-20T06:32:08.303Z,5.29
2023-01-20T06:33:10.174Z,5.34
2023-01-20T06:34:12.604Z,5.34
2023-01-20T06:35:15.404Z,5.30
2023-01-20T06:36:17.834Z,5.29
2023-01-20T06:37:20.659Z,5.24
2023-01-20T06:38:25.688Z,5.25
2023-01-20T06:39:27.830Z,5.27
2023-01-20T06:40:29.923Z,5.26
2023-01-20T06:41:32.053Z,5.27
2023-01-20T06:42:33.912Z,5.30
2023-01-20T06:43:36.632Z,5.34
2023-01-20T06:44:38.520Z,5.34
2023-01-20T06:45:40.388Z,5.36
2023-01-20T06:46:42.436Z,5.32
2023-01-20T06:47:49.511Z,5.33
2023-01-20T06:48:51.623Z,5.32
2023-01-20T06:49:53.499Z,5.43
2023-01-20T06:51:09.503Z,5.38
2023-01-20T06:52:11.615Z,5.46
2023-01-20T06:53:13.562Z,5.46
2023-01-20T06:54:16.170Z,5.48
2023-01-20T06:55:18.220Z,5.56
2023-01-20T06:56:20.907Z,5.58
2023-01-20T06:57:23.021Z,5.61
2023-01-20T06:58:26.806Z,5.59
2023-01-20T06:59:28.725Z,5.65
2023-01-20T07:00:30.948Z,5.63
2023-01-20T07:01:33.078Z,5.62
2023-01-20T07:02:35.321Z,5.65
2023-01-20T07:03:37.692Z,5.70
2023-01-20T07:04:39.680Z,5.65
2023-01-20T07:05:42.360Z,5.64
2023-01-20T07:06:44.484Z,5.70
2023-01-20T07:07:46.371Z,5.67
2023-01-20T07:08:48.398Z,5.69
2023-01-20T07:09:55.323Z,5.67
2023-01-20T07:10:57.434Z,5.71
2023-01-20T07:11:59.295Z,5.72
2023-01-20T07:13:01.187Z,5.79
2023-01-20T07:14:04.759Z,5.77
2023-01-20T07:15:07.751Z,5.80
2023-01-20T07:16:13.735Z,5.83
2023-01-20T07:17:15.218Z,5.88
2023-01-20T07:18:17.195Z,5.86
2023-01-20T07:19:19.210Z,5.77
2023-01-20T07:20:22.492Z,5.80
2023-01-20T07:21:26.515Z,5.79
2023-01-20T07:22:28.844Z,5.83
2023-01-20T07:23:31.543Z,5.87
2023-01-20T07:24:33.466Z,5.84
2023-01-20T07:25:36.602Z,5.85
2023-01-20T07:26:38.729Z,5.84
2023-01-20T07:27:40.597Z,5.89
2023-01-20T07:28:43.045Z,5.94
2023-01-20T07:29:45.168Z,5.91
2023-01-20T07:30:47.302Z,5.91
2023-01-20T07:31:49.883Z,5.99
2023-01-20T07:32:53.012Z,5.99
2023-01-20T07:33:55.460Z,6.05
2023-01-20T07:34:57.447Z,6.11
2023-01-20T07:36:00.443Z,6.12
2023-01-20T07:37:02.484Z,6.14
2023-01-20T11:53:22.544Z,9.62
2023-01-20T11:54:27.464Z,9.55
2023-01-20T11:55:29.580Z,9.60
2023-01-20T11:56:44.476Z,9.67
2023-01-20T11:57:50.284Z,9.72
2023-01-20T11:59:02.094Z,9.74
2023-01-20T12:00:20.135Z,9.77
2023-01-20T12:01:27.275Z,9.79
2023-01-20T12:02:29.305Z,9.86
2023-01-20T12:05:21.636Z,10.00
2023-01-20T12:06:33.254Z,9.90
2023-01-20T12:07:38.981Z,9.96
2023-01-20T12:08:54.084Z,9.98
2023-01-20T12:10:05.680Z,9.98
2023-01-20T12:11:10.331Z,9.96
2023-01-20T12:12:33.601Z,10.00
2023-01-20T12:13:50.572Z,10.02
2023-01-20T12:16:11.128Z,10.15
2023-01-20T12:17:44.384Z,10.03
2023-01-20T12:19:01.755Z,10.04
2023-01-20T12:20:18.046Z,10.05
2023-01-20T12:21:24.121Z,10.05
2023-01-20T12:24:03.337Z,10.17
2023-01-20T12:25:15.349Z,10.11
2023-01-20T12:26:20.448Z,10.17
2023-01-20T12:27:26.116Z,10.18
2023-01-20T12:28:49.452Z,10.21
2023-01-20T12:29:55.133Z,10.24
2023-01-20T12:31:03.009Z,10.24
2023-01-20T12:32:05.315Z,10.27
2023-01-20T12:33:23.368Z,10.27
2023-01-20T12:34:30.319Z,10.30
2023-01-20T12:35:35.990Z,10.36
2023-01-20T12:37:12.053Z,10.33
2023-01-20T12:38:17.839Z,10.35
2023-01-20T12:39:23.513Z,10.39
2023-01-20T12:40:41.939Z,10.41
2023-01-20T12:42:09.311Z,10.41
2023-01-20T12:44:54.133Z,10.55
2023-01-20T12:46:14.417Z,10.44
2023-01-20T12:47:26.809Z,10.40
2023-01-20T12:48:35.120Z,10.40
2023-01-20T12:49:43.869Z,10.41
2023-01-20T12:51:09.839Z,10.40
2023-01-20T12:52:24.772Z,10.37
2023-01-20T12:53:47.539Z,10.35
2023-01-20T12:55:10.285Z,10.33
2023-01-20T12:56:49.764Z,10.32
2023-01-20T12:57:58.320Z,10.30
2023-01-20T12:59:23.859Z,10.19
2023-01-20T13:00:49.829Z,10.14
2023-01-20T13:03:14.825Z,10.13
2023-01-20T13:04:48.018Z,9.95
2023-01-20T13:06:19.352Z,9.92
2023-01-20T13:07:39.898Z,9.88
2023-01-20T13:08:57.508Z,9.85
2023-01-20T13:10:22.794Z,9.78
2023-01-20T13:11:49.370Z,9.73
2023-01-20T13:13:01.079Z,9.71
2023-01-20T13:14:26.908Z,9.68
2023-01-20T13:15:35.648Z,9.65
2023-01-20T13:16:44.784Z,9.63
2023-01-20T13:17:59.536Z,9.65
2023-01-20T13:19:17.587Z,9.62
2023-01-20T13:20:26.702Z,9.58
2023-01-20T13:21:33.210Z,9.59
2023-01-20T13:22:36.314Z,9.53
2023-01-20T13:23:38.658Z,9.56
2023-01-20T13:24:44.912Z,9.54
2023-01-20T13:25:47.964Z,9.51
2023-01-20T13:26:50.489Z,9.52
2023-01-20T13:27:53.369Z,9.48
2023-01-20T13:28:56.815Z,9.47
2023-01-20T13:30:00.680Z,9.43
2023-01-20T13:31:09.460Z,9.41
2023-01-20T13:32:35.244Z,9.40
2023-01-20T13:33:40.275Z,9.34
2023-01-20T13:34:43.238Z,9.34
2023-01-20T13:35:48.938Z,9.30
2023-01-20T13:37:07.289Z,9.29
2023-01-20T13:38:24.506Z,9.27
2023-01-20T13:39:47.585Z,9.27
2023-01-20T13:40:53.001Z,9.27
2023-01-20T13:41:55.853Z,9.23
2023-01-20T13:42:58.106Z,9.21
2023-01-20T13:44:04.266Z,9.19
2023-01-20T13:45:16.036Z,9.16
2023-01-20T13:46:22.719Z,9.13
2023-01-20T13:48:02.120Z,9.03
2023-01-20T13:49:13.692Z,8.96
2023-01-20T13:50:25.153Z,8.96
2023-01-20T13:51:39.878Z,8.96
2023-01-20T13:52:54.790Z,8.95
2023-01-20T13:54:26.458Z,8.91
2023-01-20T13:55:32.295Z,8.92
2023-01-20T13:56:34.414Z,8.88
2023-01-20T13:57:36.405Z,8.81
2023-01-20T13:58:38.800Z,8.79
2023-01-20T13:59:40.731Z,8.80
2023-01-20T14:00:43.533Z,8.77
2023-01-20T14:01:45.552Z,8.74
2023-01-20T14:02:49.647Z,8.72
2023-01-20T14:04:08.093Z,8.69
2023-01-20T14:06:41.911Z,8.77
2023-01-20T14:07:43.922Z,8.64
2023-01-20T14:08:49.254Z,8.60
2023-01-20T14:09:53.226Z,8.60
2023-01-20T14:11:14.087Z,8.60
2023-01-20T14:12:16.032Z,8.59
2023-01-20T14:13:21.655Z,8.58
2023-01-20T14:14:26.028Z,8.56
2023-01-20T14:15:32.704Z,8.52
2023-01-20T14:16:39.671Z,8.49
2023-01-20T14:17:42.278Z,8.47
2023-01-20T14:18:47.165Z,8.47
2023-01-20T14:19:51.845Z,8.46
2023-01-20T14:22:25.675Z,8.50
2023-01-20T14:23:30.961Z,8.37
2023-01-20T14:24:36.492Z,8.37
2023-01-20T14:25:38.592Z,8.30
2023-01-20T14:26:40.767Z,8.32
2023-01-20T14:27:43.864Z,8.30
2023-01-20T14:28:51.896Z,8.28
2023-01-20T14:29:56.274Z,8.23
2023-01-20T14:31:13.732Z,8.23
2023-01-20T14:32:22.717Z,8.21
2023-01-20T14:33:24.824Z,8.13
2023-01-20T14:34:29.408Z,8.19
2023-01-20T14:35:33.568Z,8.17
2023-01-20T14:36:36.581Z,8.16
2023-01-20T14:37:39.847Z,8.13
2023-01-20T14:38:56.579Z,8.13
2023-01-20T14:39:51.452Z,8.10
2023-01-20T14:40:54.713Z,8.10
2023-01-20T14:42:02.317Z,8.10
2023-01-20T14:43:17.366Z,8.06
2023-01-20T14:44:24.161Z,8.11
2023-01-20T14:45:29.423Z,8.08
2023-01-20T14:46:34.242Z,8.02
2023-01-20T14:47:37.894Z,8.00
2023-01-20T14:48:41.917Z,7.98
2023-01-20T14:49:47.925Z,7.95
2023-01-20T14:50:52.342Z,7.91
2023-01-20T14:51:55.024Z,7.91
2023-01-20T14:52:57.776Z,7.89
2023-01-20T14:54:29.426Z,7.87
2023-01-20T14:55:38.550Z,7.87
2023-01-20T14:56:44.466Z,7.83
2023-01-20T14:57:46.519Z,7.82
2023-01-20T14:58:51.421Z,7.80
2023-01-20T15:00:20.879Z,7.78
2023-01-20T15:01:27.127Z,7.71
2023-01-20T15:02:32.658Z,7.71
2023-01-20T15:03:34.935Z,7.69
2023-01-20T15:04:38.060Z,7.64
2023-01-20T15:06:56.965Z,7.71
2023-01-20T15:08:17.700Z,7.60
2023-01-20T15:09:28.414Z,7.56
2023-01-20T15:10:31.401Z,7.57
2023-01-20T15:11:34.210Z,7.55
2023-01-20T15:12:46.041Z,7.54
2023-01-20T15:13:54.516Z,7.53
2023-01-20T15:16:21.103Z,7.57
2023-01-20T15:17:23.145Z,7.46
2023-01-20T15:18:25.021Z,7.43
2023-01-20T15:19:32.457Z,7.39
2023-01-20T15:20:37.937Z,7.39
2023-01-20T15:21:44.164Z,7.38
2023-01-20T15:22:47.335Z,7.38
2023-01-20T15:23:51.155Z,7.38
2023-01-20T15:24:53.957Z,7.39
2023-01-20T15:25:56.633Z,7.38
2023-01-20T15:27:01.913Z,7.40
2023-01-20T15:28:04.266Z,7.36
2023-01-20T15:29:24.552Z,7.39
2023-01-20T15:30:26.623Z,7.37
2023-01-20T15:31:28.781Z,7.34
2023-01-20T15:32:30.892Z,7.33
2023-01-20T15:33:32.944Z,7.27
2023-01-20T15:34:35.641Z,7.29
2023-01-20T15:35:38.003Z,7.25
2023-01-20T20:29:52.784Z,2.77
2023-01-20T20:30:58.018Z,2.66
2023-01-20T20:32:00.319Z,2.63
2023-01-20T20:33:02.800Z,2.63
2023-01-20T20:34:07.081Z,2.64
2023-01-20T20:35:09.249Z,2.69
2023-01-20T20:36:12.213Z,2.69
2023-01-20T20:37:14.276Z,2.67
2023-01-20T20:38:16.653Z,2.67
2023-01-20T20:39:19.148Z,2.70
2023-01-20T20:40:21.213Z,2.73
2023-01-20T20:41:24.071Z,2.72
2023-01-20T20:42:25.987Z,2.69
2023-01-20T20:43:29.267Z,2.69
2023-01-20T20:44:31.277Z,2.67
2023-01-20T20:45:33.499Z,2.68
2023-01-20T20:46:35.525Z,2.67
2023-01-20T20:47:37.918Z,2.67
2023-01-20T20:48:39.932Z,2.67
2023-01-20T20:49:41.977Z,2.65
2023-01-20T20:50:44.096Z,2.66
2023-01-20T20:51:46.380Z,2.64
2023-01-20T20:52:48.313Z,2.62
2023-01-20T20:53:53.206Z,2.61
2023-01-20T20:54:55.512Z,2.61
2023-01-20T20:55:57.430Z,2.61
2023-01-20T20:56:59.655Z,2.58
2023-01-20T20:58:01.639Z,2.56
2023-01-20T20:59:03.986Z,2.57
2023-01-20T21:00:07.826Z,2.55
2023-01-20T21:02:23.293Z,2.61
2023-01-20T21:03:25.801Z,2.51
2023-01-20T21:04:27.947Z,2.49
2023-01-20T21:05:29.888Z,2.49
2023-01-20T21:06:33.098Z,2.54
2023-01-20T21:07:35.252Z,2.52
2023-01-20T21:08:38.275Z,2.49
2023-01-20T21:09:40.725Z,2.45
2023-01-20T21:10:42.835Z,2.45
2023-01-20T21:11:44.862Z,2.52
2023-01-20T21:12:47.144Z,2.47
2023-01-20T21:13:49.142Z,2.42
2023-01-20T21:14:51.339Z,2.37
2023-01-20T21:16:01.175Z,2.44
2023-01-20T21:17:04.021Z,2.42
2023-01-20T21:18:06.826Z,2.41
2023-01-20T21:19:08.744Z,2.38
2023-01-20T21:20:12.270Z,2.37
2023-01-20T21:21:14.895Z,2.40
2023-01-20T21:22:16.919Z,2.36
2023-01-20T21:23:18.883Z,2.31
2023-01-20T21:24:20.782Z,2.32
2023-01-20T21:25:23.015Z,2.31
2023-01-20T21:26:30.070Z,2.34
2023-01-20T21:27:31.635Z,2.28
2023-01-20T21:28:36.258Z,2.28
2023-01-20T21:29:38.331Z,2.31
2023-01-20T21:30:40.846Z,2.27
2023-01-20T21:31:42.911Z,2.28
2023-01-20T21:32:45.303Z,2.28
2023-01-20T21:33:54.348Z,2.23
2023-01-20T21:34:56.368Z,2.22
2023-01-20T21:36:00.749Z,2.24
2023-01-20T21:37:02.871Z,2.21
2023-01-20T21:38:06.149Z,2.18
2023-01-20T21:39:15.843Z,2.18
2023-01-20T21:40:18.446Z,2.19
2023-01-20T21:41:21.086Z,2.17
2023-01-20T21:42:23.179Z,2.13
2023-01-20T21:43:33.012Z,2.13
2023-01-20T21:44:35.140Z,2.08
2023-01-20T21:45:37.075Z,2.10
2023-01-20T21:46:41.257Z,2.09
2023-01-20T21:47:43.238Z,2.06
2023-01-20T21:48:45.720Z,2.07
2023-01-20T21:49:47.641Z,2.03
2023-01-20T21:50:49.845Z,2.06
2023-01-20T21:51:51.822Z,2.07
2023-01-20T21:52:53.701Z,2.11
2023-01-20T21:53:55.703Z,2.04
2023-01-20T21:54:57.743Z,2.04
2023-01-20T21:55:59.658Z,2.01
2023-01-20T21:57:01.817Z,2.03
2023-01-20T21:58:03.946Z,2.00
2023-01-20T21:59:07.312Z,2.03
2023-01-20T22:00:11.003Z,1.96
2023-01-20T22:01:13.283Z,1.96
2023-01-20T22:02:15.633Z,1.96
2023-01-20T22:03:17.766Z,1.93
2023-01-20T22:04:19.662Z,1.93
2023-01-20T22:05:21.653Z,1.97
2023-01-20T22:06:23.729Z,1.93
2023-01-20T22:07:25.739Z,1.90
2023-01-20T22:08:27.798Z,1.88
2023-01-20T22:09:29.673Z,1.86
2023-01-20T22:10:31.858Z,1.83
2023-01-20T22:11:34.797Z,1.81
2023-01-20T22:12:36.712Z,1.81
2023-01-20T22:13:38.591Z,1.76
2023-01-20T22:14:41.177Z,1.79
2023-01-20T22:15:43.567Z,1.84
2023-01-20T22:16:46.015Z,1.79
2023-01-20T22:17:48.249Z,1.79
2023-01-20T22:18:51.349Z,1.75
2023-01-20T22:19:53.333Z,1.73
2023-01-20T22:21:03.375Z,1.74
2023-01-20T22:22:07.344Z,1.71
2023-01-20T22:23:09.672Z,1.75
2023-01-20T22:24:11.566Z,1.68
2023-01-20T22:25:13.852Z,1.67
2023-01-20T22:26:15.935Z,1.68
2023-01-20T22:27:18.080Z,1.69
2023-01-20T22:28:19.940Z,1.64
2023-01-20T22:29:22.547Z,1.64
2023-01-20T22:30:24.548Z,1.66
2023-01-20T22:31:26.613Z,1.63
2023-01-20T22:32:28.602Z,1.65
2023-01-20T22:33:30.483Z,1.59
2023-01-20T22:34:32.347Z,1.61
2023-01-20T22:35:34.221Z,1.62
2023-01-20T22:36:37.035Z,1.62
2023-01-20T22:37:38.921Z,1.60
2023-01-20T22:38:40.907Z,1.59
2023-01-20T22:39:42.849Z,1.54
2023-01-20T22:40:44.817Z,1.51
2023-01-20T22:41:46.738Z,1.54
2023-01-20T22:42:49.787Z,1.50
2023-01-20T22:43:52.245Z,1.49
2023-01-20T22:44:54.118Z,1.48
2023-01-20T22:46:00.298Z,1.45
2023-01-20T22:47:02.399Z,1.47
2023-01-20T22:48:06.383Z,1.45
2023-01-20T22:49:09.095Z,1.44
2023-01-20T22:50:11.652Z,1.45
2023-01-20T22:51:16.481Z,1.41
2023-01-20T22:52:18.457Z,1.42
2023-01-20T22:53:20.335Z,1.41
2023-01-20T22:54:22.201Z,1.38
2023-01-20T22:55:24.392Z,1.40
2023-01-20T22:56:29.245Z,1.41
2023-01-20T22:57:31.164Z,1.40
2023-01-20T22:58:33.937Z,1.40
2023-01-20T22:59:38.726Z,1.42
2023-01-20T23:00:40.734Z,1.39
2023-01-20T23:01:42.719Z,1.37
2023-01-20T23:02:46.129Z,1.42
2023-01-20T23:03:57.799Z,1.30
2023-01-20T23:05:00.031Z,1.35
2023-01-20T23:06:02.048Z,1.31
2023-01-20T23:07:03.930Z,1.34
2023-01-20T23:08:05.912Z,1.29
2023-01-20T23:09:11.185Z,1.29
2023-01-20T23:10:13.522Z,1.30
2023-01-20T23:11:17.675Z,1.29
2023-01-20T23:12:21.020Z,1.25
2023-01-20T23:13:23.364Z,1.24
2023-01-20T23:14:25.445Z,1.21
2023-01-20T23:15:28.442Z,1.22
2023-01-20T23:16:30.689Z,1.20
2023-01-20T23:17:32.726Z,1.18
2023-01-20T23:18:34.614Z,1.22
2023-01-20T23:19:36.505Z,1.18
2023-01-20T23:20:38.816Z,1.14
2023-01-20T23:21:40.764Z,1.15
2023-01-20T23:22:42.731Z,1.14
2023-01-20T23:23:44.833Z,1.11
2023-01-20T23:24:46.843Z,1.14
2023-01-20T23:25:50.228Z,1.13
2023-01-20T23:26:53.373Z,1.12
2023-01-20T23:27:55.615Z,1.09
2023-01-20T23:28:57.637Z,1.13
2023-01-20T23:29:59.631Z,1.06
2023-01-20T23:31:03.838Z,1.13
2023-01-20T23:32:06.995Z,1.11
2023-01-20T23:33:09.687Z,1.08
2023-01-20T23:34:11.919Z,1.09
2023-01-20T23:35:13.840Z,1.07
2023-01-20T23:36:24.250Z,1.08
2023-01-20T23:37:26.173Z,1.11
2023-01-20T23:38:28.038Z,1.08
2023-01-20T23:39:30.949Z,1.11
2023-01-20T23:40:34.313Z,1.08
2023-01-20T23:41:36.206Z,1.08
2023-01-20T23:42:38.073Z,1.07
